createdAt,value
2018-01-21T07:54:04.579Z,4.67
2018-01-21T07:56:35.632Z,4.23
2018-01-21T07:59:06.702Z,4.87
2018-01-21T08:01:37.731Z,4.20
2018-01-21T08:04:08.842Z,4.40
2018-01-21T08:06:39.921Z,4.67
2018-01-21T08:09:11.028Z,4.53
2018-01-21T08:11:42.080Z,4.13
2018-01-21T08:14:13.147Z,5.23
2018-01-21T08:16:44.257Z,5.13
2018-01-21T08:19:15.341Z,4.13
2018-01-21T08:21:46.425Z,4.73
2018-01-21T08:24:17.528Z,4.67
2018-01-21T08:26:48.606Z,4.20
2018-01-21T08:29:19.834Z,4.97
2018-01-21T08:31:50.922Z,3.70
2018-01-21T08:34:28.102Z,4.10
2018-01-21T08:37:05.336Z,5.27
2018-01-21T08:42:43.680Z,4.00
2018-01-21T08:45:14.810Z,5.07
2018-01-21T08:47:45.842Z,4.63
2018-01-21T08:50:16.966Z,3.70
2018-01-21T08:52:48.026Z,3.90
2018-01-21T08:55:19.116Z,3.90
2018-01-21T08:57:50.503Z,3.40
2018-01-21T09:00:21.667Z,3.20
2018-01-21T09:02:52.780Z,3.33
2018-01-21T09:05:23.852Z,3.20
2018-01-21T09:07:56.371Z,2.97
2018-01-21T09:10:27.454Z,2.73
2018-01-21T09:12:58.581Z,2.63
2018-01-21T09:15:29.679Z,3.13
2018-01-21T09:18:01.245Z,2.57
2018-01-21T09:20:32.344Z,3.27
2018-01-21T09:23:03.471Z,2.80
2018-01-21T09:25:34.564Z,3.00
2018-01-21T09:28:05.618Z,2.77
2018-01-21T09:30:36.706Z,3.00
2018-01-21T09:33:07.776Z,2.40
2018-01-21T09:35:38.918Z,3.13
2018-01-21T09:38:10.031Z,2.70
2018-01-21T09:40:41.109Z,2.70
2018-01-21T09:43:12.179Z,2.77
2018-01-21T09:45:43.294Z,2.73
2018-01-21T09:48:14.428Z,2.87
2018-01-21T09:50:45.519Z,2.43
2018-01-21T09:53:16.552Z,2.70
2018-01-21T09:55:47.646Z,3.27
2018-01-21T09:58:18.697Z,2.77
2018-01-21T10:00:49.814Z,2.83
2018-01-21T10:03:20.854Z,2.77
2018-01-21T10:05:51.953Z,3.43
2018-01-21T10:08:23.025Z,3.30
2018-01-21T10:10:54.101Z,3.53
2018-01-21T10:13:25.897Z,2.77
2018-01-21T10:15:57.086Z,3.23
2018-01-21T10:18:28.180Z,2.73
2018-01-21T10:20:59.294Z,3.00
2018-01-21T10:23:30.350Z,2.90
2018-01-21T10:26:01.622Z,3.20
2018-01-21T10:28:32.716Z,3.63
2018-01-21T10:31:03.792Z,3.73
2018-01-21T10:33:34.896Z,3.00
2018-01-21T10:36:05.955Z,2.73
2018-01-21T10:38:37.032Z,3.20
2018-01-21T10:41:08.132Z,3.20
2018-01-21T10:43:39.195Z,2.93
2018-01-21T10:46:10.260Z,3.40
2018-01-21T10:48:41.344Z,3.00
2018-01-21T10:51:12.439Z,3.40
2018-01-21T10:53:49.832Z,3.27
2018-01-21T10:56:20.948Z,3.80
2018-01-21T10:58:52.040Z,3.80
2018-01-21T11:01:23.151Z,4.13
2018-01-21T11:03:54.255Z,3.73
2018-01-21T11:06:25.312Z,4.40
2018-01-21T11:08:56.383Z,4.40
2018-01-21T11:11:28.029Z,4.23
2018-01-21T11:13:59.103Z,3.87
2018-01-21T11:16:30.175Z,4.57
2018-01-21T11:19:01.270Z,4.47
2018-01-21T11:21:32.404Z,4.47
2018-01-21T11:24:03.480Z,3.50
2018-01-21T11:26:34.540Z,4.27
2018-01-21T11:29:05.626Z,3.73
2018-01-21T11:31:36.684Z,4.33
2018-01-21T11:34:07.760Z,3.77
2018-01-21T11:36:38.881Z,4.00
2018-01-21T11:39:09.969Z,4.07
2018-01-21T11:41:41.108Z,4.83
2018-01-21T11:44:12.202Z,4.17
2018-01-21T11:46:43.293Z,4.27
2018-01-21T11:49:14.526Z,4.20
2018-01-21T11:51:45.604Z,4.27
2018-01-21T11:54:16.691Z,4.20
2018-01-21T11:56:47.789Z,4.53
2018-01-21T11:59:18.890Z,4.60
2018-01-21T12:01:50.006Z,5.40
2018-01-21T12:04:21.227Z,4.70
2018-01-21T12:06:52.268Z,5.13
2018-01-21T12:09:23.380Z,5.30
2018-01-21T12:11:54.429Z,4.23
2018-01-21T12:14:25.521Z,5.67
2018-01-21T12:16:56.607Z,5.43
2018-01-21T12:19:27.856Z,5.30
2018-01-21T12:21:58.932Z,4.90
2018-01-21T12:24:30.015Z,5.37
2018-01-21T12:27:01.068Z,5.00
2018-01-21T12:29:32.205Z,4.93
2018-01-21T12:32:03.308Z,4.93
2018-01-21T12:34:34.396Z,5.07
2018-01-21T12:37:05.488Z,5.53
2018-01-21T12:39:36.598Z,5.90
2018-01-21T12:42:07.694Z,4.93
2018-01-21T12:44:38.754Z,5.57
2018-01-21T12:47:10.053Z,5.17
2018-01-21T12:49:41.167Z,5.27
2018-01-21T12:52:12.257Z,5.17
2018-01-21T12:54:43.366Z,5.83
2018-01-21T12:57:14.429Z,5.80
2018-01-21T12:59:45.546Z,6.40
2018-01-21T13:02:16.605Z,6.30
2018-01-21T13:04:47.791Z,6.47
2018-01-21T13:07:18.856Z,6.07
2018-01-21T13:09:49.911Z,6.60
2018-01-21T13:12:21.009Z,6.10
2018-01-21T13:14:52.110Z,5.90
2018-01-21T13:17:23.184Z,5.90
2018-01-21T13:19:54.213Z,6.13
2018-01-21T13:22:25.370Z,5.83
2018-01-21T13:24:56.467Z,6.00
2018-01-21T13:27:27.577Z,6.57
2018-01-21T13:29:58.676Z,6.73
2018-01-21T13:32:29.735Z,6.97
2018-01-21T13:35:00.874Z,6.30
2018-01-21T13:37:31.947Z,6.57
2018-01-21T13:40:03.086Z,6.03
2018-01-21T13:42:34.147Z,6.37
2018-01-21T13:45:05.221Z,6.00
2018-01-21T13:47:36.300Z,6.53
2018-01-21T13:50:07.423Z,6.50
2018-01-21T13:52:38.532Z,6.77
2018-01-21T13:55:09.641Z,6.70
2018-01-21T13:57:40.744Z,6.80
2018-01-21T14:00:11.868Z,6.77
2018-01-21T14:02:42.986Z,6.53
2018-01-21T14:05:14.033Z,6.03
2018-01-21T14:07:45.154Z,6.17
2018-01-21T14:10:16.289Z,5.30
2018-01-21T14:12:47.356Z,6.27
2018-01-21T14:15:18.451Z,6.23
2018-01-21T14:17:49.523Z,5.30
2018-01-21T14:20:20.638Z,5.90
2018-01-21T14:22:51.762Z,5.43
2018-01-21T14:25:22.872Z,5.43
2018-01-21T14:27:53.931Z,5.63
2018-01-21T14:30:25.055Z,5.07
2018-01-21T14:32:56.130Z,5.63
2018-01-21T14:35:27.191Z,5.63
2018-01-21T14:37:58.264Z,6.47
2018-01-21T14:40:29.334Z,5.97
2018-01-21T14:43:00.441Z,6.40
2018-01-21T14:45:31.548Z,5.67
2018-01-21T14:48:02.649Z,5.60
2018-01-21T14:50:33.748Z,5.57
2018-01-21T14:53:04.901Z,5.60
2018-01-21T14:55:35.991Z,5.60
2018-01-21T14:58:07.068Z,5.20
2018-01-21T15:00:40.046Z,4.97
2018-01-21T15:03:11.105Z,5.47
2018-01-21T15:05:42.214Z,5.47
2018-01-21T15:08:13.320Z,5.60
2018-01-21T15:10:44.396Z,5.43
2018-01-21T15:13:15.463Z,5.40
2018-01-21T15:15:46.576Z,5.67
2018-01-21T15:18:17.662Z,5.13
2018-01-21T15:20:48.780Z,5.13
2018-01-21T15:23:19.868Z,5.17
2018-01-21T15:25:50.980Z,6.27
2018-01-21T15:28:22.060Z,5.17
2018-01-21T15:30:53.133Z,4.47
2018-01-21T15:33:24.232Z,5.07
2018-01-21T15:35:55.319Z,5.77
2018-01-21T15:38:26.448Z,4.57
2018-01-21T15:40:57.542Z,5.20
2018-01-21T15:43:28.883Z,5.47
2018-01-21T15:45:59.983Z,5.27
2018-01-21T15:48:31.056Z,5.30
2018-01-21T15:51:02.090Z,6.20
2018-01-21T15:53:33.258Z,4.73
2018-01-21T15:56:04.385Z,6.20
2018-01-21T15:58:35.473Z,5.20
2018-01-21T16:01:06.560Z,4.97
2018-01-21T16:03:37.678Z,6.00
2018-01-21T16:06:08.761Z,5.57
2018-01-21T16:08:39.895Z,6.10
2018-01-21T16:11:10.985Z,6.00
2018-01-21T16:13:42.080Z,5.60
2018-01-21T16:16:13.199Z,5.23
2018-01-21T16:18:44.320Z,5.73
2018-01-21T16:21:15.431Z,6.17
2018-01-21T16:23:46.515Z,5.80
2018-01-21T16:26:17.580Z,6.20
2018-01-21T16:28:48.678Z,5.93
2018-01-21T16:31:19.766Z,5.57
2018-01-21T16:33:50.828Z,5.60
2018-01-21T16:36:26.751Z,5.77
2018-01-21T16:38:58.864Z,6.03
2018-01-21T16:41:29.916Z,5.57
2018-01-21T16:44:01.042Z,6.57
2018-01-21T16:46:32.676Z,6.67
2018-01-21T16:49:03.838Z,6.40
2018-01-21T16:51:34.941Z,6.67
2018-01-21T16:54:06.008Z,7.37
2018-01-21T16:56:37.357Z,6.70
2018-01-21T16:59:08.427Z,7.90
2018-01-21T17:01:39.558Z,7.13
2018-01-21T17:04:10.618Z,7.20
2018-01-21T17:06:41.698Z,7.00
2018-01-21T17:09:12.801Z,7.70
2018-01-21T17:11:44.590Z,8.63
2018-01-21T17:14:15.679Z,8.50
2018-01-21T17:16:46.763Z,7.75
2018-01-21T17:19:17.841Z,8.97
2018-01-21T17:21:48.989Z,9.13
2018-01-21T17:24:20.086Z,9.43
2018-01-21T17:26:51.910Z,9.40
2018-01-21T17:29:22.968Z,11.38
2018-01-21T17:31:54.039Z,9.77
2018-01-21T17:34:25.097Z,11.77
2018-01-21T17:36:56.255Z,13.10
2018-01-21T17:39:27.370Z,10.63
2018-01-21T17:41:58.489Z,10.52
2018-01-21T17:44:29.563Z,11.12
2018-01-21T17:47:00.808Z,10.98
2018-01-21T17:49:32.047Z,11.27
2018-01-21T17:52:03.172Z,11.00
2018-01-21T17:54:34.254Z,10.07
2018-01-21T17:57:05.393Z,10.55
2018-01-21T17:59:36.458Z,11.18
2018-01-21T18:02:07.541Z,13.50
2018-01-21T18:04:38.614Z,11.75
2018-01-21T18:07:09.728Z,12.93
2018-01-21T18:09:41.010Z,14.23
2018-01-21T18:12:12.085Z,15.57
2018-01-21T18:14:43.196Z,14.45
2018-01-21T18:17:14.328Z,13.40
2018-01-21T18:19:45.455Z,12.48
2018-01-21T18:22:16.604Z,11.90
2018-01-21T18:24:47.751Z,12.27
2018-01-21T18:27:18.951Z,10.80
2018-01-21T18:29:50.092Z,10.52
2018-01-21T18:32:21.468Z,11.45
2018-01-21T18:34:52.567Z,10.93
2018-01-21T18:37:23.618Z,11.30
2018-01-21T18:39:54.715Z,11.63
2018-01-21T18:42:25.808Z,11.05
2018-01-21T18:44:57.946Z,11.63
2018-01-21T18:47:29.005Z,12.02
2018-01-21T18:50:00.198Z,12.68
2018-01-21T18:52:31.232Z,12.00
2018-01-21T18:55:02.376Z,14.95
2018-01-21T18:57:33.464Z,13.93
2018-01-21T19:00:04.729Z,13.85
2018-01-21T19:02:35.809Z,14.57
2018-01-21T19:05:06.882Z,16.42
2018-01-21T19:07:37.946Z,15.45
2018-01-21T19:10:09.012Z,15.27
2018-01-21T19:12:40.100Z,15.27
2018-01-21T19:15:11.178Z,16.37
2018-01-21T19:17:42.263Z,16.80
2018-01-21T19:20:13.378Z,16.70
2018-01-21T19:22:44.419Z,15.02
2018-01-21T19:25:15.509Z,17.15
2018-01-21T19:27:46.535Z,17.83
2018-01-21T19:30:17.656Z,16.12
2018-01-21T19:32:48.759Z,17.17
2018-01-21T19:35:19.967Z,18.20
2018-01-21T19:37:51.138Z,18.58
2018-01-21T19:40:25.180Z,20.20
2018-01-21T19:43:02.304Z,20.42
2018-01-21T19:45:33.430Z,21.42
2018-01-21T19:48:04.489Z,21.23
2018-01-21T19:50:35.518Z,24.15
2018-01-21T19:53:06.688Z,23.20
2018-01-21T19:55:37.817Z,23.73
2018-01-21T19:58:08.868Z,23.00
2018-01-21T20:00:40.207Z,21.83
2018-01-21T20:03:11.322Z,22.17
2018-01-21T20:05:42.442Z,22.83
2018-01-21T20:08:13.591Z,22.45
2018-01-21T20:10:44.662Z,17.17
2018-01-21T20:13:15.818Z,18.60
2018-01-21T20:15:46.903Z,17.17
2018-01-21T20:18:18.120Z,16.83
2018-01-21T20:20:49.206Z,17.77
2018-01-21T20:23:20.294Z,17.87
2018-01-21T20:25:51.329Z,19.02
2018-01-21T20:28:22.460Z,19.12
2018-01-21T20:30:54.112Z,20.08
2018-01-21T20:33:25.233Z,19.80
2018-01-21T20:35:56.326Z,21.95
2018-01-21T20:38:27.457Z,24.42
2018-01-21T20:40:58.543Z,25.73
2018-01-21T20:43:29.625Z,25.30
2018-01-21T20:46:00.805Z,21.40
2018-01-21T20:48:31.878Z,22.77
2018-01-21T20:51:09.049Z,22.02
2018-01-21T20:53:46.165Z,21.00
2018-01-21T20:56:17.334Z,21.10
2018-01-21T20:58:48.405Z,20.73
2018-01-21T21:01:19.802Z,22.02
2018-01-21T21:03:50.852Z,23.27
2018-01-21T21:06:21.971Z,24.70
2018-01-21T21:08:53.082Z,25.30
2018-01-21T21:11:24.138Z,23.20
2018-01-21T21:13:55.233Z,22.10
2018-01-21T21:16:26.311Z,22.98
2018-01-21T21:18:57.416Z,21.92
2018-01-21T21:21:28.461Z,20.50
2018-01-21T21:23:59.571Z,20.20
2018-01-21T21:26:31.323Z,21.55
2018-01-21T21:29:02.426Z,22.67
2018-01-21T21:31:33.527Z,21.42
2018-01-21T21:34:04.618Z,21.73
2018-01-21T21:36:35.735Z,22.17
2018-01-21T21:39:06.774Z,20.10
2018-01-21T21:41:38.658Z,21.45
2018-01-21T21:44:09.710Z,21.80
2018-01-21T21:46:41.490Z,22.83
2018-01-21T21:49:12.568Z,22.23
2018-01-21T21:51:43.661Z,23.27
2018-01-21T21:54:14.731Z,21.55
2018-01-21T21:56:45.811Z,21.27
2018-01-21T21:59:16.897Z,22.15
2018-01-21T22:01:48.004Z,24.48
2018-01-21T22:04:19.065Z,22.95
2018-01-21T22:06:50.205Z,25.20
2018-01-21T22:09:21.278Z,23.23
2018-01-21T22:11:52.367Z,23.48
2018-01-21T22:14:23.420Z,23.50
2018-01-21T22:16:54.538Z,23.38
2018-01-21T22:19:25.656Z,23.05
2018-01-21T22:21:56.751Z,22.08
2018-01-21T22:24:27.802Z,21.42
2018-01-21T22:26:58.915Z,19.73
2018-01-21T22:29:29.973Z,23.00
2018-01-21T22:32:01.088Z,23.77
2018-01-21T22:34:32.137Z,23.12
2018-01-21T22:37:03.279Z,21.80
2018-01-21T22:39:34.321Z,22.87
2018-01-21T22:42:05.402Z,19.83
2018-01-21T22:44:36.490Z,21.50
2018-01-21T22:47:07.554Z,20.67
2018-01-21T22:49:38.685Z,17.48
2018-01-21T22:52:09.785Z,18.45
2018-01-21T22:54:40.918Z,17.07
2018-01-21T22:57:12.929Z,16.80
2018-01-21T22:59:44.091Z,16.35
2018-01-21T23:02:15.110Z,16.65
2018-01-21T23:04:46.323Z,16.85
2018-01-21T23:07:17.478Z,18.45
2018-01-21T23:09:48.564Z,17.33
2018-01-21T23:12:19.703Z,16.60
2018-01-21T23:14:50.739Z,16.62
2018-01-21T23:17:21.855Z,16.40
2018-01-21T23:19:52.917Z,18.17
2018-01-21T23:22:24.008Z,18.48
2018-01-21T23:24:55.096Z,17.45
2018-01-21T23:27:26.202Z,18.62
2018-01-21T23:29:57.322Z,18.02
2018-01-21T23:32:28.373Z,16.83
2018-01-21T23:34:59.489Z,17.12
2018-01-21T23:37:30.539Z,17.25
2018-01-21T23:40:01.672Z,17.25
2018-01-21T23:42:32.716Z,18.30
2018-01-21T23:45:03.844Z,19.50
2018-01-21T23:47:41.984Z,16.98
2018-01-21T23:50:13.113Z,18.77
2018-01-21T23:52:44.215Z,19.42
2018-01-21T23:55:15.344Z,18.37
2018-01-21T23:57:46.486Z,18.87
